Laughlin Air Force Base

Airport
ICAO code: 
KDLF
Summary
ICAO Region: 
NAM
Territory: 
Location: 
Del Rio, Texas,
Elevation: 
1082 ft
Coordinates: 
Aerial View: 
29° 21' 20.38" N, 100° 47' 1.828" W
Airport LOS: 
Parallel Runway Operation
Airport WX: 
Tropical Revolving Storm
Metar
Observation
KDLF 040756Z AUTO 10008KT 10SM CLR 18/15 A3000 RMK AO2 SLP149 T01800154
Station
Laughlin, Laughlin Air Force Base Auxiliary Airfield
Date/Time
2021-12-04 07:56:00
Wind direction
100°
Wind speed
08 kts
Lowest cloud amount
n/a
Temperature
18°C
Dew point
15.4°C
Humidity
84%
Weather condition
n/a

Description

Laughlin Air Force Base is a facility of the United States Air Force which is located 10 km east of the central business district of Del Rio, Texas.

Climatology

Hot, semi-arid/Steppe climate (Köppen climate classification BSh) - hot, sometimes extremely hot summers and mild to warm winters, with low annual precipitation.

Runways

Designator Length Width Surface Rops
13R/31L 1904 46 ASP No/No
13L/31R 2533 46 PEM No/No
13C/31C 2700 46 PEM No/No
Airport map: 
Aerial View: 

SKYbrary Partners:

Safety knowledge contributed by: